sensor_id;sensor_type;location;lat;lon;timestamp;pressure;altitude;pressure_sealevel;temperature;humidity
54870;BME280;40756;-37.950;145.008;2023-05-31T00:00:08;101313.04;;;17.17;44.00
54870;BME280;40756;-37.950;145.008;2023-05-31T00:02:38;101319.49;;;17.08;44.37
54870;BME280;40756;-37.950;145.008;2023-05-31T00:05:09;101310.87;;;17.64;44.33
54870;BME280;40756;-37.950;145.008;2023-05-31T00:07:39;101304.69;;;18.03;44.38
54870;BME280;40756;-37.950;145.008;2023-05-31T00:10:09;101311.11;;;17.31;44.33
54870;BME280;40756;-37.950;145.008;2023-05-31T00:12:39;101311.89;;;17.78;44.57
54870;BME280;40756;-37.950;145.008;2023-05-31T00:15:09;101307.43;;;17.80;44.72
54870;BME280;40756;-37.950;145.008;2023-05-31T00:17:39;101302.55;;;17.38;44.94
54870;BME280;40756;-37.950;145.008;2023-05-31T00:20:09;101306.64;;;16.82;46.17
54870;BME280;40756;-37.950;145.008;2023-05-31T00:22:39;101305.07;;;17.87;44.92
54870;BME280;40756;-37.950;145.008;2023-05-31T00:25:09;101311.70;;;17.57;45.30
54870;BME280;40756;-37.950;145.008;2023-05-31T00:27:38;101310.10;;;16.89;45.37
54870;BME280;40756;-37.950;145.008;2023-05-31T00:30:08;101307.46;;;17.77;44.59
54870;BME280;40756;-37.950;145.008;2023-05-31T00:32:38;101307.04;;;17.33;45.06
54870;BME280;40756;-37.950;145.008;2023-05-31T00:35:08;101309.28;;;17.37;45.37
54870;BME280;40756;-37.950;145.008;2023-05-31T00:37:37;101309.33;;;17.37;44.90
54870;BME280;40756;-37.950;145.008;2023-05-31T00:40:07;101314.53;;;17.66;44.96
54870;BME280;40756;-37.950;145.008;2023-05-31T00:42:37;101320.72;;;18.02;45.03
54870;BME280;40756;-37.950;145.008;2023-05-31T00:45:07;101311.55;;;17.76;45.19
54870;BME280;40756;-37.950;145.008;2023-05-31T00:47:37;101315.17;;;17.37;46.12
54870;BME280;40756;-37.950;145.008;2023-05-31T00:50:08;101316.99;;;18.07;45.67
54870;BME280;40756;-37.950;145.008;2023-05-31T00:52:37;101313.74;;;17.67;45.65
54870;BME280;40756;-37.950;145.008;2023-05-31T00:55:07;101311.48;;;17.44;45.68
54870;BME280;40756;-37.950;145.008;2023-05-31T00:57:38;101307.35;;;17.89;44.99
54870;BME280;40756;-37.950;145.008;2023-05-31T01:00:08;101302.18;;;17.22;45.20
54870;BME280;40756;-37.950;145.008;2023-05-31T01:02:39;101302.43;;;17.66;45.25
54870;BME280;40756;-37.950;145.008;2023-05-31T01:05:10;101299.97;;;17.65;44.62
54870;BME280;40756;-37.950;145.008;2023-05-31T01:07:39;101292.81;;;17.88;43.92
54870;BME280;40756;-37.950;145.008;2023-05-31T01:10:09;101287.41;;;17.61;44.75
54870;BME280;40756;-37.950;145.008;2023-05-31T01:12:49;101281.62;;;17.83;45.12
54870;BME280;40756;-37.950;145.008;2023-05-31T01:15:24;101275.29;;;16.99;44.95
54870;BME280;40756;-37.950;145.008;2023-05-31T01:18:02;101276.71;;;17.90;44.87
54870;BME280;40756;-37.950;145.008;2023-05-31T01:20:37;101269.47;;;17.87;44.37
54870;BME280;40756;-37.950;145.008;2023-05-31T01:23:19;101254.90;;;17.76;44.13
54870;BME280;40756;-37.950;145.008;2023-05-31T01:26:05;101257.22;;;17.85;44.79
54870;BME280;40756;-37.950;145.008;2023-05-31T01:28:41;101249.82;;;17.81;44.54
54870;BME280;40756;-37.950;145.008;2023-05-31T01:31:16;101245.68;;;17.98;44.70
54870;BME280;40756;-37.950;145.008;2023-05-31T01:33:48;101244.02;;;17.68;44.17
54870;BME280;40756;-37.950;145.008;2023-05-31T01:36:18;101242.08;;;18.43;43.78
54870;BME280;40756;-37.950;145.008;2023-05-31T01:38:47;101235.94;;;18.27;44.19
54870;BME280;40756;-37.950;145.008;2023-05-31T01:41:17;101228.02;;;17.99;43.58
54870;BME280;40756;-37.950;145.008;2023-05-31T01:43:48;101231.09;;;18.10;43.91
54870;BME280;40756;-37.950;145.008;2023-05-31T01:46:19;101226.98;;;18.00;43.90
54870;BME280;40756;-37.950;145.008;2023-05-31T01:48:50;101221.34;;;18.56;44.19
54870;BME280;40756;-37.950;145.008;2023-05-31T01:51:22;101219.49;;;17.90;43.86
54870;BME280;40756;-37.950;145.008;2023-05-31T01:53:52;101224.62;;;18.59;44.06
54870;BME280;40756;-37.950;145.008;2023-05-31T01:56:22;101224.00;;;18.48;44.24
54870;BME280;40756;-37.950;145.008;2023-05-31T01:58:53;101221.39;;;19.09;44.27
54870;BME280;40756;-37.950;145.008;2023-05-31T02:01:24;101222.24;;;18.34;44.06
54870;BME280;40756;-37.950;145.008;2023-05-31T02:03:54;101218.94;;;18.21;43.84
54870;BME280;40756;-37.950;145.008;2023-05-31T02:06:23;101211.82;;;18.30;44.10
54870;BME280;40756;-37.950;145.008;2023-05-31T02:08:53;101204.89;;;18.35;44.11
54870;BME280;40756;-37.950;145.008;2023-05-31T02:11:23;101194.97;;;18.05;44.37
54870;BME280;40756;-37.950;145.008;2023-05-31T02:13:52;101193.85;;;17.87;44.16
54870;BME280;40756;-37.950;145.008;2023-05-31T02:16:21;101191.40;;;18.02;43.58
54870;BME280;40756;-37.950;145.008;2023-05-31T02:18:51;101181.35;;;18.07;44.11
54870;BME280;40756;-37.950;145.008;2023-05-31T02:21:21;101183.27;;;19.02;43.50
54870;BME280;40756;-37.950;145.008;2023-05-31T02:23:50;101175.53;;;18.64;44.30
54870;BME280;40756;-37.950;145.008;2023-05-31T02:26:20;101174.32;;;17.73;44.39
54870;BME280;40756;-37.950;145.008;2023-05-31T02:28:49;101166.31;;;18.32;44.20
54870;BME280;40756;-37.950;145.008;2023-05-31T02:31:19;101168.30;;;18.65;43.98
54870;BME280;40756;-37.950;145.008;2023-05-31T02:33:49;101174.92;;;18.45;43.85
54870;BME280;40756;-37.950;145.008;2023-05-31T02:36:19;101164.44;;;17.86;44.34
54870;BME280;40756;-37.950;145.008;2023-05-31T02:38:49;101153.32;;;17.86;44.42
54870;BME280;40756;-37.950;145.008;2023-05-31T02:41:18;101164.94;;;18.06;44.25
54870;BME280;40756;-37.950;145.008;2023-05-31T02:43:47;101161.53;;;18.21;44.22
54870;BME280;40756;-37.950;145.008;2023-05-31T02:46:17;101159.18;;;18.22;44.36
54870;BME280;40756;-37.950;145.008;2023-05-31T02:48:46;101143.09;;;18.05;44.23
54870;BME280;40756;-37.950;145.008;2023-05-31T02:51:16;101137.99;;;18.23;43.55
54870;BME280;40756;-37.950;145.008;2023-05-31T02:53:45;101135.23;;;18.03;43.75
54870;BME280;40756;-37.950;145.008;2023-05-31T02:56:15;101129.57;;;18.48;43.22
54870;BME280;40756;-37.950;145.008;2023-05-31T02:58:44;101117.50;;;18.15;43.60
54870;BME280;40756;-37.950;145.008;2023-05-31T03:01:14;101105.63;;;18.64;43.20
54870;BME280;40756;-37.950;145.008;2023-05-31T03:03:43;101117.10;;;18.12;43.70
54870;BME280;40756;-37.950;145.008;2023-05-31T03:06:13;101112.30;;;17.89;43.82
54870;BME280;40756;-37.950;145.008;2023-05-31T03:08:43;101101.21;;;18.44;43.40
54870;BME280;40756;-37.950;145.008;2023-05-31T03:11:13;101098.12;;;18.09;43.56
54870;BME280;40756;-37.950;145.008;2023-05-31T03:13:42;101086.05;;;17.87;43.43
54870;BME280;40756;-37.950;145.008;2023-05-31T03:16:12;101073.96;;;17.94;43.49
54870;BME280;40756;-37.950;145.008;2023-05-31T03:18:41;101072.90;;;18.28;43.21
54870;BME280;40756;-37.950;145.008;2023-05-31T03:21:10;101071.93;;;18.05;43.66
54870;BME280;40756;-37.950;145.008;2023-05-31T03:23:40;101071.66;;;18.28;42.93
54870;BME280;40756;-37.950;145.008;2023-05-31T03:26:10;101075.14;;;18.44;43.15
54870;BME280;40756;-37.950;145.008;2023-05-31T03:28:39;101068.23;;;18.14;43.32
54870;BME280;40756;-37.950;145.008;2023-05-31T03:31:09;101067.32;;;18.36;43.08
54870;BME280;40756;-37.950;145.008;2023-05-31T03:33:38;101064.58;;;17.99;43.47
54870;BME280;40756;-37.950;145.008;2023-05-31T03:36:08;101054.75;;;18.26;43.09
54870;BME280;40756;-37.950;145.008;2023-05-31T03:38:37;101045.93;;;18.76;42.53
54870;BME280;40756;-37.950;145.008;2023-05-31T03:41:07;101040.60;;;18.37;42.56
54870;BME280;40756;-37.950;145.008;2023-05-31T03:43:36;101034.67;;;18.44;42.50
54870;BME280;40756;-37.950;145.008;2023-05-31T03:46:06;101033.34;;;18.51;42.96
54870;BME280;40756;-37.950;145.008;2023-05-31T03:48:36;101030.04;;;18.55;42.71
54870;BME280;40756;-37.950;145.008;2023-05-31T03:51:05;101026.17;;;18.81;42.11
54870;BME280;40756;-37.950;145.008;2023-05-31T03:53:35;101021.66;;;18.78;41.91
54870;BME280;40756;-37.950;145.008;2023-05-31T03:56:04;101018.26;;;18.31;43.15
54870;BME280;40756;-37.950;145.008;2023-05-31T03:58:34;101013.91;;;18.63;42.52
54870;BME280;40756;-37.950;145.008;2023-05-31T04:01:03;101014.96;;;18.30;42.55
54870;BME280;40756;-37.950;145.008;2023-05-31T04:03:33;101005.22;;;18.88;41.95
54870;BME280;40756;-37.950;145.008;2023-05-31T04:06:02;100999.62;;;18.58;42.15
54870;BME280;40756;-37.950;145.008;2023-05-31T04:08:32;100994.33;;;18.08;42.47
54870;BME280;40756;-37.950;145.008;2023-05-31T04:11:03;100985.80;;;18.00;43.07
54870;BME280;40756;-37.950;145.008;2023-05-31T04:13:32;100984.67;;;17.58;43.41
54870;BME280;40756;-37.950;145.008;2023-05-31T04:16:02;100976.83;;;18.26;43.12
54870;BME280;40756;-37.950;145.008;2023-05-31T04:18:31;100970.61;;;17.99;44.04
54870;BME280;40756;-37.950;145.008;2023-05-31T04:21:01;100969.16;;;17.82;43.90
54870;BME280;40756;-37.950;145.008;2023-05-31T04:23:31;100971.24;;;17.86;43.19
54870;BME280;40756;-37.950;145.008;2023-05-31T04:26:00;100974.99;;;17.68;41.92
54870;BME280;40756;-37.950;145.008;2023-05-31T04:28:30;100977.57;;;17.46;40.70
54870;BME280;40756;-37.950;145.008;2023-05-31T04:31:00;100975.38;;;17.81;40.18
54870;BME280;40756;-37.950;145.008;2023-05-31T04:33:30;100971.27;;;19.25;40.43
54870;BME280;40756;-37.950;145.008;2023-05-31T04:35:59;100971.75;;;18.59;41.68
54870;BME280;40756;-37.950;145.008;2023-05-31T04:38:29;100974.51;;;18.45;42.53
54870;BME280;40756;-37.950;145.008;2023-05-31T04:40:58;100974.32;;;18.24;42.15
54870;BME280;40756;-37.950;145.008;2023-05-31T04:43:28;100977.53;;;18.41;42.94
54870;BME280;40756;-37.950;145.008;2023-05-31T04:45:57;100979.29;;;18.45;42.79
54870;BME280;40756;-37.950;145.008;2023-05-31T04:48:27;100980.44;;;18.31;43.08
54870;BME280;40756;-37.950;145.008;2023-05-31T04:50:56;100982.68;;;18.43;43.67
54870;BME280;40756;-37.950;145.008;2023-05-31T04:53:26;100976.29;;;18.38;43.68
54870;BME280;40756;-37.950;145.008;2023-05-31T04:55:55;100970.80;;;18.19;44.45
54870;BME280;40756;-37.950;145.008;2023-05-31T04:58:25;100967.32;;;18.43;44.16
54870;BME280;40756;-37.950;145.008;2023-05-31T05:00:54;100964.13;;;18.59;43.70
54870;BME280;40756;-37.950;145.008;2023-05-31T05:03:24;100960.91;;;18.51;43.86
54870;BME280;40756;-37.950;145.008;2023-05-31T05:05:56;100953.72;;;18.31;44.04
54870;BME280;40756;-37.950;145.008;2023-05-31T05:08:25;100948.42;;;18.10;43.60
54870;BME280;40756;-37.950;145.008;2023-05-31T05:10:54;100940.38;;;17.98;43.24
54870;BME280;40756;-37.950;145.008;2023-05-31T05:13:25;100939.52;;;18.23;43.02
54870;BME280;40756;-37.950;145.008;2023-05-31T05:15:54;100929.24;;;17.66;42.50
54870;BME280;40756;-37.950;145.008;2023-05-31T05:18:25;100928.00;;;17.85;42.86
54870;BME280;40756;-37.950;145.008;2023-05-31T05:20:54;100924.32;;;18.58;44.03
54870;BME280;40756;-37.950;145.008;2023-05-31T05:23:24;100917.09;;;18.54;43.53
54870;BME280;40756;-37.950;145.008;2023-05-31T05:25:53;100907.14;;;18.74;41.41
54870;BME280;40756;-37.950;145.008;2023-05-31T05:28:23;100900.33;;;18.55;41.94
54870;BME280;40756;-37.950;145.008;2023-05-31T05:30:52;100882.40;;;18.06;42.20
54870;BME280;40756;-37.950;145.008;2023-05-31T05:33:22;100904.11;;;17.93;42.45
54870;BME280;40756;-37.950;145.008;2023-05-31T05:35:51;100919.80;;;18.38;42.23
54870;BME280;40756;-37.950;145.008;2023-05-31T05:38:21;100934.29;;;17.93;42.40
54870;BME280;40756;-37.950;145.008;2023-05-31T05:40:51;100939.78;;;17.63;43.32
54870;BME280;40756;-37.950;145.008;2023-05-31T05:43:20;100935.03;;;17.91;42.67
54870;BME280;40756;-37.950;145.008;2023-05-31T05:45:50;100929.65;;;18.01;45.09
54870;BME280;40756;-37.950;145.008;2023-05-31T05:48:19;100937.30;;;18.16;43.76
54870;BME280;40756;-37.950;145.008;2023-05-31T05:50:49;100936.21;;;18.35;43.65
54870;BME280;40756;-37.950;145.008;2023-05-31T05:53:18;100943.39;;;17.68;43.75
54870;BME280;40756;-37.950;145.008;2023-05-31T05:55:50;100931.81;;;17.76;43.72
54870;BME280;40756;-37.950;145.008;2023-05-31T05:58:20;100929.90;;;18.10;43.93
54870;BME280;40756;-37.950;145.008;2023-05-31T06:00:50;100931.61;;;17.86;44.61
54870;BME280;40756;-37.950;145.008;2023-05-31T06:03:19;100927.59;;;18.06;43.91
54870;BME280;40756;-37.950;145.008;2023-05-31T06:05:49;100925.60;;;17.91;44.33
54870;BME280;40756;-37.950;145.008;2023-05-31T06:08:18;100924.67;;;17.69;45.22
54870;BME280;40756;-37.950;145.008;2023-05-31T06:10:48;100925.86;;;17.57;45.32
54870;BME280;40756;-37.950;145.008;2023-05-31T06:13:20;100920.48;;;17.95;45.05
54870;BME280;40756;-37.950;145.008;2023-05-31T06:15:50;100913.81;;;17.72;45.13
54870;BME280;40756;-37.950;145.008;2023-05-31T06:18:20;100919.54;;;17.37;44.95
54870;BME280;40756;-37.950;145.008;2023-05-31T06:20:50;100913.08;;;17.62;45.54
54870;BME280;40756;-37.950;145.008;2023-05-31T06:23:21;100887.54;;;17.59;45.40
54870;BME280;40756;-37.950;145.008;2023-05-31T06:25:51;100880.72;;;17.21;46.00
54870;BME280;40756;-37.950;145.008;2023-05-31T06:28:21;100879.41;;;17.58;45.55
54870;BME280;40756;-37.950;145.008;2023-05-31T06:30:51;100885.14;;;17.82;45.57
54870;BME280;40756;-37.950;145.008;2023-05-31T06:33:22;100879.95;;;17.55;45.79
54870;BME280;40756;-37.950;145.008;2023-05-31T06:35:53;100874.45;;;17.55;45.88
54870;BME280;40756;-37.950;145.008;2023-05-31T06:38:22;100872.68;;;17.85;47.42
54870;BME280;40756;-37.950;145.008;2023-05-31T06:40:54;100867.84;;;17.83;45.63
54870;BME280;40756;-37.950;145.008;2023-05-31T06:43:23;100872.35;;;17.87;45.24
54870;BME280;40756;-37.950;145.008;2023-05-31T06:45:54;100874.82;;;18.32;44.91
54870;BME280;40756;-37.950;145.008;2023-05-31T06:48:23;100874.57;;;17.69;45.74
54870;BME280;40756;-37.950;145.008;2023-05-31T06:50:52;100877.60;;;17.14;46.20
54870;BME280;40756;-37.950;145.008;2023-05-31T06:53:22;100879.43;;;17.66;45.79
54870;BME280;40756;-37.950;145.008;2023-05-31T06:55:51;100886.46;;;17.20;46.45
54870;BME280;40756;-37.950;145.008;2023-05-31T06:58:21;100892.53;;;16.92;46.91
54870;BME280;40756;-37.950;145.008;2023-05-31T07:00:51;100899.81;;;17.35;46.39
54870;BME280;40756;-37.950;145.008;2023-05-31T07:03:20;100897.44;;;17.47;46.58
54870;BME280;40756;-37.950;145.008;2023-05-31T07:05:50;100895.38;;;17.27;46.22
54870;BME280;40756;-37.950;145.008;2023-05-31T07:08:19;100899.49;;;16.31;47.84
54870;BME280;40756;-37.950;145.008;2023-05-31T07:10:49;100904.04;;;17.31;47.03
54870;BME280;40756;-37.950;145.008;2023-05-31T07:13:18;100895.05;;;17.19;47.02
54870;BME280;40756;-37.950;145.008;2023-05-31T07:15:48;100903.46;;;16.96;47.42
54870;BME280;40756;-37.950;145.008;2023-05-31T07:18:18;100910.45;;;17.08;46.93
54870;BME280;40756;-37.950;145.008;2023-05-31T07:20:47;100908.03;;;17.41;46.83
54870;BME280;40756;-37.950;145.008;2023-05-31T07:23:17;100906.64;;;17.05;47.75
54870;BME280;40756;-37.950;145.008;2023-05-31T07:25:47;100899.66;;;17.09;47.48
54870;BME280;40756;-37.950;145.008;2023-05-31T07:28:16;100895.88;;;17.23;47.34
54870;BME280;40756;-37.950;145.008;2023-05-31T07:30:46;100896.83;;;17.12;47.75
54870;BME280;40756;-37.950;145.008;2023-05-31T07:33:15;100895.76;;;17.29;47.46
54870;BME280;40756;-37.950;145.008;2023-05-31T07:35:45;100895.09;;;17.03;47.59
54870;BME280;40756;-37.950;145.008;2023-05-31T07:38:14;100890.45;;;16.92;47.49
54870;BME280;40756;-37.950;145.008;2023-05-31T07:40:43;100900.56;;;17.32;47.36
54870;BME280;40756;-37.950;145.008;2023-05-31T07:43:13;100889.52;;;17.68;46.80
54870;BME280;40756;-37.950;145.008;2023-05-31T07:45:43;100900.51;;;17.17;47.34
54870;BME280;40756;-37.950;145.008;2023-05-31T07:48:12;100887.65;;;16.96;47.86
54870;BME280;40756;-37.950;145.008;2023-05-31T07:50:42;100887.61;;;17.18;47.43
54870;BME280;40756;-37.950;145.008;2023-05-31T07:53:11;100882.14;;;17.08;47.80
54870;BME280;40756;-37.950;145.008;2023-05-31T07:55:41;100881.33;;;17.08;47.55
54870;BME280;40756;-37.950;145.008;2023-05-31T07:58:11;100874.55;;;17.07;47.85
54870;BME280;40756;-37.950;145.008;2023-05-31T08:00:41;100885.55;;;17.07;47.69
54870;BME280;40756;-37.950;145.008;2023-05-31T08:03:10;100883.32;;;17.14;47.47
54870;BME280;40756;-37.950;145.008;2023-05-31T08:05:39;100884.74;;;16.98;47.55
54870;BME280;40756;-37.950;145.008;2023-05-31T08:08:09;100884.25;;;16.79;48.03
54870;BME280;40756;-37.950;145.008;2023-05-31T08:10:39;100878.26;;;17.12;47.37
54870;BME280;40756;-37.950;145.008;2023-05-31T08:13:08;100865.60;;;16.95;47.82
54870;BME280;40756;-37.950;145.008;2023-05-31T08:15:38;100861.93;;;17.44;47.55
54870;BME280;40756;-37.950;145.008;2023-05-31T08:18:07;100863.69;;;17.28;47.32
54870;BME280;40756;-37.950;145.008;2023-05-31T08:20:37;100859.41;;;16.98;48.17
54870;BME280;40756;-37.950;145.008;2023-05-31T08:23:07;100858.53;;;16.87;48.32
54870;BME280;40756;-37.950;145.008;2023-05-31T08:25:40;100853.03;;;17.46;47.19
54870;BME280;40756;-37.950;145.008;2023-05-31T08:28:10;100857.30;;;17.49;46.87
54870;BME280;40756;-37.950;145.008;2023-05-31T08:30:39;100851.71;;;17.27;47.37
54870;BME280;40756;-37.950;145.008;2023-05-31T08:33:09;100849.96;;;16.93;47.96
54870;BME280;40756;-37.950;145.008;2023-05-31T08:35:38;100845.12;;;16.92;48.08
54870;BME280;40756;-37.950;145.008;2023-05-31T08:38:08;100845.02;;;17.14;48.16
54870;BME280;40756;-37.950;145.008;2023-05-31T08:40:38;100848.10;;;16.87;48.41
54870;BME280;40756;-37.950;145.008;2023-05-31T08:43:09;100847.92;;;17.12;48.12
54870;BME280;40756;-37.950;145.008;2023-05-31T08:45:40;100843.81;;;17.42;47.41
54870;BME280;40756;-37.950;145.008;2023-05-31T08:48:17;100843.61;;;17.43;47.19
54870;BME280;40756;-37.950;145.008;2023-05-31T08:50:46;100847.92;;;16.76;48.13
54870;BME280;40756;-37.950;145.008;2023-05-31T08:53:18;100854.17;;;16.86;47.87
54870;BME280;40756;-37.950;145.008;2023-05-31T08:55:49;100852.72;;;16.80;48.44
54870;BME280;40756;-37.950;145.008;2023-05-31T08:58:20;100855.38;;;16.88;48.44
54870;BME280;40756;-37.950;145.008;2023-05-31T09:00:49;100860.23;;;16.84;48.81
54870;BME280;40756;-37.950;145.008;2023-05-31T09:03:19;100863.70;;;17.42;48.06
54870;BME280;40756;-37.950;145.008;2023-05-31T09:05:50;100865.43;;;16.93;48.56
54870;BME280;40756;-37.950;145.008;2023-05-31T09:08:19;100855.59;;;17.35;48.01
54870;BME280;40756;-37.950;145.008;2023-05-31T09:10:49;100862.01;;;16.91;48.97
54870;BME280;40756;-37.950;145.008;2023-05-31T09:13:19;100856.78;;;17.14;48.91
54870;BME280;40756;-37.950;145.008;2023-05-31T09:15:49;100861.77;;;17.20;48.36
54870;BME280;40756;-37.950;145.008;2023-05-31T09:18:22;100868.05;;;17.16;48.28
54870;BME280;40756;-37.950;145.008;2023-05-31T09:20:53;100861.84;;;16.62;50.01
54870;BME280;40756;-37.950;145.008;2023-05-31T09:23:23;100860.65;;;16.20;50.86
54870;BME280;40756;-37.950;145.008;2023-05-31T09:25:53;100858.81;;;17.29;49.15
54870;BME280;40756;-37.950;145.008;2023-05-31T09:28:23;100848.39;;;17.31;48.89
54870;BME280;40756;-37.950;145.008;2023-05-31T09:31:03;100855.57;;;16.69;49.92
54870;BME280;40756;-37.950;145.008;2023-05-31T09:33:42;100858.59;;;17.20;49.21
54870;BME280;40756;-37.950;145.008;2023-05-31T09:36:12;100853.24;;;17.02;49.55
54870;BME280;40756;-37.950;145.008;2023-05-31T09:38:42;100863.99;;;16.92;49.89
54870;BME280;40756;-37.950;145.008;2023-05-31T09:41:16;100861.24;;;16.90;50.20
54870;BME280;40756;-37.950;145.008;2023-05-31T09:43:47;100851.88;;;16.80;50.13
54870;BME280;40756;-37.950;145.008;2023-05-31T09:46:18;100860.78;;;17.23;49.52
54870;BME280;40756;-37.950;145.008;2023-05-31T09:48:59;100857.06;;;16.93;50.22
54870;BME280;40756;-37.950;145.008;2023-05-31T09:51:30;100860.81;;;16.51;50.83
54870;BME280;40756;-37.950;145.008;2023-05-31T09:54:01;100873.03;;;16.61;50.76
54870;BME280;40756;-37.950;145.008;2023-05-31T09:56:31;100883.24;;;16.46;51.10
54870;BME280;40756;-37.950;145.008;2023-05-31T09:59:05;100880.01;;;17.02;50.16
54870;BME280;40756;-37.950;145.008;2023-05-31T10:01:35;100876.53;;;16.69;51.41
54870;BME280;40756;-37.950;145.008;2023-05-31T10:04:05;100879.57;;;16.73;51.10
54870;BME280;40756;-37.950;145.008;2023-05-31T10:06:34;100879.91;;;16.96;50.80
54870;BME280;40756;-37.950;145.008;2023-05-31T10:09:04;100875.07;;;16.49;50.80
54870;BME280;40756;-37.950;145.008;2023-05-31T10:11:35;100882.06;;;17.07;50.56
54870;BME280;40756;-37.950;145.008;2023-05-31T10:14:09;100881.15;;;16.79;50.57
54870;BME280;40756;-37.950;145.008;2023-05-31T10:16:43;100883.75;;;17.62;49.46
54870;BME280;40756;-37.950;145.008;2023-05-31T10:19:18;100876.48;;;17.16;49.65
54870;BME280;40756;-37.950;145.008;2023-05-31T10:21:50;100873.59;;;17.34;49.08
54870;BME280;40756;-37.950;145.008;2023-05-31T10:24:25;100866.08;;;17.58;48.95
54870;BME280;40756;-37.950;145.008;2023-05-31T10:27:02;100859.23;;;17.37;48.76
54870;BME280;40756;-37.950;145.008;2023-05-31T10:29:41;100850.28;;;17.32;48.78
54870;BME280;40756;-37.950;145.008;2023-05-31T10:32:18;100836.59;;;17.32;49.10
54870;BME280;40756;-37.950;145.008;2023-05-31T10:34:49;100832.37;;;17.11;49.37
54870;BME280;40756;-37.950;145.008;2023-05-31T10:37:19;100829.73;;;17.06;49.57
54870;BME280;40756;-37.950;145.008;2023-05-31T10:39:55;100825.26;;;17.07;49.68
54870;BME280;40756;-37.950;145.008;2023-05-31T10:42:27;100825.75;;;17.15;49.53
54870;BME280;40756;-37.950;145.008;2023-05-31T10:45:04;100818.49;;;17.38;49.16
54870;BME280;40756;-37.950;145.008;2023-05-31T10:47:37;100819.44;;;17.09;49.37
54870;BME280;40756;-37.950;145.008;2023-05-31T10:50:09;100807.28;;;16.98;49.14
54870;BME280;40756;-37.950;145.008;2023-05-31T10:52:49;100802.24;;;17.17;48.81
54870;BME280;40756;-37.950;145.008;2023-05-31T10:55:20;100805.92;;;17.35;48.57
54870;BME280;40756;-37.950;145.008;2023-05-31T10:57:53;100785.17;;;17.59;48.05
54870;BME280;40756;-37.950;145.008;2023-05-31T11:00:24;100779.12;;;17.34;48.10
54870;BME280;40756;-37.950;145.008;2023-05-31T11:02:56;100781.36;;;17.74;47.89
54870;BME280;40756;-37.950;145.008;2023-05-31T11:05:27;100776.64;;;17.63;48.02
54870;BME280;40756;-37.950;145.008;2023-05-31T11:07:59;100775.18;;;17.49;48.19
54870;BME280;40756;-37.950;145.008;2023-05-31T11:10:29;100768.55;;;17.34;48.46
54870;BME280;40756;-37.950;145.008;2023-05-31T11:13:03;100770.76;;;16.78;49.70
54870;BME280;40756;-37.950;145.008;2023-05-31T11:15:48;100768.99;;;16.98;50.15
54870;BME280;40756;-37.950;145.008;2023-05-31T11:18:26;100756.24;;;16.50;50.94
54870;BME280;40756;-37.950;145.008;2023-05-31T11:20:56;100758.12;;;17.13;50.08
54870;BME280;40756;-37.950;145.008;2023-05-31T11:23:28;100761.71;;;16.98;49.90
54870;BME280;40756;-37.950;145.008;2023-05-31T11:26:27;100770.84;;;16.68;50.77
54870;BME280;40756;-37.950;145.008;2023-05-31T11:29:00;100772.01;;;17.35;49.55
54870;BME280;40756;-37.950;145.008;2023-05-31T11:32:02;100768.04;;;17.73;48.90
54870;BME280;40756;-37.950;145.008;2023-05-31T11:34:34;100772.72;;;17.45;49.39
54870;BME280;40756;-37.950;145.008;2023-05-31T11:37:04;100776.39;;;17.17;50.08
54870;BME280;40756;-37.950;145.008;2023-05-31T11:39:34;100777.52;;;17.50;49.49
54870;BME280;40756;-37.950;145.008;2023-05-31T11:42:04;100789.12;;;17.50;49.67
54870;BME280;40756;-37.950;145.008;2023-05-31T11:44:35;100801.13;;;17.60;48.82
54870;BME280;40756;-37.950;145.008;2023-05-31T11:47:17;100803.59;;;17.15;49.04
54870;BME280;40756;-37.950;145.008;2023-05-31T11:49:48;100801.42;;;17.19;48.76
54870;BME280;40756;-37.950;145.008;2023-05-31T11:52:19;100800.25;;;17.49;48.86
54870;BME280;40756;-37.950;145.008;2023-05-31T11:54:49;100798.04;;;17.48;48.78
54870;BME280;40756;-37.950;145.008;2023-05-31T11:57:19;100810.35;;;17.54;48.83
54870;BME280;40756;-37.950;145.008;2023-05-31T11:59:49;100790.25;;;17.34;48.60
54870;BME280;40756;-37.950;145.008;2023-05-31T12:02:18;100792.29;;;17.30;48.06
54870;BME280;40756;-37.950;145.008;2023-05-31T12:04:48;100784.26;;;17.81;47.83
54870;BME280;40756;-37.950;145.008;2023-05-31T12:07:18;100784.64;;;17.40;48.04
54870;BME280;40756;-37.950;145.008;2023-05-31T12:09:47;100767.50;;;17.76;46.56
54870;BME280;40756;-37.950;145.008;2023-05-31T12:12:16;100772.35;;;17.69;46.74
54870;BME280;40756;-37.950;145.008;2023-05-31T12:14:54;100752.42;;;17.64;46.61
54870;BME280;40756;-37.950;145.008;2023-05-31T12:17:25;100747.62;;;17.39;46.94
54870;BME280;40756;-37.950;145.008;2023-05-31T12:19:54;100749.55;;;17.48;47.09
54870;BME280;40756;-37.950;145.008;2023-05-31T12:22:24;100745.77;;;16.83;47.65
54870;BME280;40756;-37.950;145.008;2023-05-31T12:24:55;100744.98;;;16.70;47.83
54870;BME280;40756;-37.950;145.008;2023-05-31T12:27:26;100749.77;;;17.49;47.11
54870;BME280;40756;-37.950;145.008;2023-05-31T12:29:57;100736.77;;;17.07;48.12
54870;BME280;40756;-37.950;145.008;2023-05-31T12:32:27;100744.75;;;17.13;47.44
54870;BME280;40756;-37.950;145.008;2023-05-31T12:35:05;100746.24;;;17.75;46.35
54870;BME280;40756;-37.950;145.008;2023-05-31T12:37:35;100743.02;;;17.28;47.65